Time;durP1;ratioP1;P1;durP2;ratioP2;P2;SDS_P1;SDS_P2;PMS_P1;PMS_P2;Temp;Humidity;BMP_temperature;BMP_pressure;BME280_temperature;BME280_humidity;BME280_pressure;Samples;Min_cycle;Max_cycle;Signal;HPM_P1;HPM_P2
2022/06/05 00:01:30;;;;;;;14.27;7.40;;;11.30;99.90;;;;;;4976008;28;20030;-88
2022/06/05 00:04:21;;;;;;;15.45;7.18;;;11.30;99.90;;;;;;4974493;28;20265;-88
2022/06/05 00:07:09;;;;;;;13.48;7.35;;;11.70;99.90;;;;;;4989769;28;20053;-86
2022/06/05 00:09:51;;;;;;;13.73;7.55;;;11.30;99.90;;;;;;4991117;28;20528;-88
2022/06/05 00:12:22;;;;;;;15.48;7.25;;;11.30;99.90;;;;;;4994991;28;20050;-86
2022/06/05 00:14:48;;;;;;;13.68;8.25;;;11.20;99.90;;;;;;5008029;28;20042;-87
2022/06/05 00:17:24;;;;;;;16.15;8.13;;;11.30;99.90;;;;;;4957861;28;20101;-88
2022/06/05 00:19:52;;;;;;;14.60;7.63;;;11.20;99.90;;;;;;4986697;28;20046;-88
2022/06/05 00:22:19;;;;;;;13.45;7.68;;;11.30;99.90;;;;;;4975505;28;20061;-89
2022/06/05 00:24:45;;;;;;;13.45;8.07;;;;;;;;;;4976905;28;20046;-87
2022/06/05 00:27:34;;;;;;;16.58;8.13;;;11.20;99.90;;;;;;5006003;28;20116;-87
2022/06/05 00:30:33;;;;;;;16.50;8.20;;;11.20;99.90;;;;;;4977965;28;20054;-87
2022/06/05 00:33:15;;;;;;;14.57;7.80;;;11.30;99.90;;;;;;4982177;28;20286;-88
2022/06/05 00:36:19;;;;;;;12.88;7.60;;;11.30;99.90;;;;;;4992522;28;20463;-87
2022/06/05 00:39:30;;;;;;;15.75;7.47;;;11.30;99.90;;;;;;4969101;28;20046;-88
2022/06/05 00:41:59;;;;;;;11.80;7.50;;;11.30;99.90;;;;;;4971667;28;20062;-88
2022/06/05 00:44:41;;;;;;;15.25;8.52;;;11.30;99.90;;;;;;4986697;28;20125;-88
2022/06/05 00:47:14;;;;;;;15.13;7.90;;;11.30;99.90;;;;;;4983526;28;20069;-88
2022/06/05 00:49:53;;;;;;;14.80;8.10;;;11.30;99.90;;;;;;5002022;28;20533;-87
2022/06/05 00:52:25;;;;;;;16.25;7.75;;;11.30;99.90;;;;;;4973489;28;20050;-88
2022/06/05 00:54:51;;;;;;;20.00;8.07;;;11.20;99.90;;;;;;4988747;28;20042;-88
2022/06/05 00:57:21;;;;;;;14.55;8.30;;;11.20;99.90;;;;;;4972975;28;20115;-88
2022/06/05 00:59:50;;;;;;;15.27;8.65;;;11.20;99.90;;;;;;4989098;28;20432;-86
2022/06/05 01:02:17;;;;;;;15.45;8.75;;;11.20;99.90;;;;;;4970916;28;20385;-88
2022/06/05 01:04:49;;;;;;;14.63;8.65;;;8.60;99.90;;;;;;4987019;28;20081;-88
2022/06/05 01:07:16;;;;;;;16.38;8.88;;;11.10;99.90;;;;;;4974619;28;20526;-87
2022/06/05 01:09:44;;;;;;;17.73;9.30;;;11.20;99.90;;;;;;4986228;28;20053;-88
2022/06/05 01:12:22;;;;;;;17.40;9.90;;;11.20;99.90;;;;;;4994690;28;20093;-87
2022/06/05 01:15:03;;;;;;;16.25;9.75;;;11.20;99.90;;;;;;4988054;28;20050;-88
2022/06/05 01:17:58;;;;;;;15.35;9.55;;;11.20;99.90;;;;;;4989316;28;20497;-88
2022/06/05 01:20:56;;;;;;;16.23;9.93;;;11.20;99.90;;;;;;4972753;28;20053;-89
2022/06/05 01:23:46;;;;;;;15.98;9.27;;;11.20;99.90;;;;;;4984493;28;20053;-90
2022/06/05 01:26:30;;;;;;;15.27;8.60;;;11.20;99.90;;;;;;4983866;28;20129;-90
2022/06/05 01:29:15;;;;;;;15.80;9.10;;;11.20;99.90;;;;;;4988548;28;20129;-87
2022/06/05 01:31:45;;;;;;;15.85;8.98;;;11.20;99.90;;;;;;4999307;28;20046;-88
2022/06/05 01:34:54;;;;;;;16.98;9.35;;;11.20;99.90;;;;;;4986078;28;20048;-89
2022/06/05 01:37:41;;;;;;;17.13;8.98;;;11.30;99.90;;;;;;4975069;28;20057;-88
2022/06/05 01:40:29;;;;;;;15.50;9.10;;;11.30;99.90;;;;;;4985865;28;20082;-88
2022/06/05 01:43:10;;;;;;;17.90;9.60;;;11.30;99.90;;;;;;4987672;28;20511;-89
2022/06/05 01:45:48;;;;;;;15.55;9.02;;;11.30;99.90;;;;;;4971450;28;20068;-87
2022/06/05 01:48:29;;;;;;;16.45;9.50;;;11.30;99.90;;;;;;4977728;28;20084;-89
2022/06/05 01:51:02;;;;;;;15.32;8.80;;;11.10;99.90;;;;;;4970148;28;20085;-89
2022/06/05 01:53:44;;;;;;;14.85;8.93;;;11.30;99.90;;;;;;4964966;28;20266;-89
2022/06/05 01:56:27;;;;;;;16.10;9.05;;;11.30;99.90;;;;;;4988414;28;20085;-90
2022/06/05 01:59:07;;;;;;;15.02;8.73;;;11.30;99.90;;;;;;4986321;28;20081;-88
2022/06/05 02:01:46;;;;;;;16.85;9.45;;;11.30;99.90;;;;;;4991285;28;20057;-89
2022/06/05 02:04:24;;;;;;;17.15;9.05;;;11.40;99.90;;;;;;4995392;28;20124;-89
2022/06/05 02:06:58;;;;;;;15.02;8.55;;;11.40;99.90;;;;;;4986969;28;20049;-88
2022/06/05 02:09:45;;;;;;;15.00;8.60;;;11.50;99.90;;;;;;4987227;28;20508;-89
2022/06/05 02:12:13;;;;;;;13.50;8.60;;;10.90;99.90;;;;;;4970806;28;20049;-88
2022/06/05 02:14:42;;;;;;;16.48;8.60;;;11.40;99.90;;;;;;4995359;28;20341;-90
2022/06/05 02:17:10;;;;;;;13.70;8.52;;;11.40;99.90;;;;;;4969708;28;20046;-89
2022/06/05 02:19:43;;;;;;;17.75;8.90;;;11.40;99.90;;;;;;4984765;28;20129;-89
2022/06/05 02:22:13;;;;;;;;;;;11.40;99.90;;;;;;4990350;28;20529;-88
2022/06/05 02:24:43;;;;;;;14.55;9.05;;;11.40;99.90;;;;;;4974111;28;19918;-90
2022/06/05 02:27:09;;;;;;;17.73;8.60;;;11.40;99.90;;;;;;4976181;28;20097;-88
2022/06/05 02:29:37;;;;;;;16.10;8.88;;;11.50;99.90;;;;;;4962385;28;20045;-88
2022/06/05 02:32:18;;;;;;;15.85;9.05;;;11.40;99.90;;;;;;4954224;28;20046;-89
2022/06/05 02:35:06;;;;;;;19.10;9.27;;;11.50;99.90;;;;;;4969603;28;20069;-89
2022/06/05 02:38:02;;;;;;;17.85;9.90;;;11.50;99.90;;;;;;4988903;28;20090;-90
2022/06/05 02:40:52;;;;;;;18.27;9.18;;;11.50;99.90;;;;;;4966885;28;20046;-87
2022/06/05 02:43:29;;;;;;;18.17;9.05;;;11.40;99.90;;;;;;4971244;28;20046;-89
2022/06/05 02:46:13;;;;;;;16.30;8.88;;;11.50;99.90;;;;;;4970169;28;20043;-89
2022/06/05 02:48:57;;;;;;;16.80;9.57;;;11.40;99.90;;;;;;4986141;28;20100;-89
2022/06/05 02:51:28;;;;;;;16.55;9.38;;;11.50;99.90;;;;;;4964966;28;21562;-90
2022/06/05 02:53:56;;;;;;;18.60;10.75;;;11.50;99.90;;;;;;4964745;28;20119;-88
2022/06/05 02:56:26;;;;;;;18.88;10.45;;;12.10;99.90;;;;;;4975006;28;20480;-88
2022/06/05 02:59:02;;;;;;;16.00;10.15;;;11.50;99.90;;;;;;4969684;28;20050;-90
2022/06/05 03:04:12;;;;;;;16.90;10.70;;;11.50;99.90;;;;;;4966538;28;20520;-90
2022/06/05 03:06:40;;;;;;;17.45;10.02;;;11.50;99.90;;;;;;4953270;28;20489;-89
2022/06/05 03:09:07;;;;;;;17.25;9.63;;;11.40;99.90;;;;;;4982022;28;20055;-89
2022/06/05 03:11:33;;;;;;;17.60;9.50;;;11.60;99.90;;;;;;4969311;28;20053;-90
2022/06/05 03:13:59;;;;;;;17.20;10.93;;;11.60;99.90;;;;;;4974273;28;20468;-91
2022/06/05 03:16:28;;;;;;;19.35;10.93;;;11.50;99.90;;;;;;4964514;28;20123;-90
2022/06/05 03:18:57;;;;;;;18.20;10.82;;;11.60;99.90;;;;;;4969545;28;20074;-89
2022/06/05 03:21:23;;;;;;;19.02;10.48;;;11.60;99.90;;;;;;4954704;28;20547;-90
2022/06/05 03:23:51;;;;;;;18.25;10.73;;;11.10;99.90;;;;;;4954846;28;20137;-88
2022/06/05 03:26:17;;;;;;;17.63;10.00;;;11.60;99.90;;;;;;4962696;28;20069;-89
2022/06/05 03:28:43;;;;;;;18.48;11.05;;;11.70;99.90;;;;;;4971703;28;20432;-88
2022/06/05 03:31:09;;;;;;;16.70;10.85;;;11.60;99.90;;;;;;4972084;28;20041;-88
2022/06/05 03:33:39;;;;;;;18.70;10.13;;;11.70;99.90;;;;;;4970542;28;20046;-89
2022/06/05 03:36:16;;;;;;;18.55;10.68;;;11.70;99.90;;;;;;4966803;28;20042;-90
2022/06/05 03:38:42;;;;;;;17.70;10.55;;;;;;;;;;4952140;28;20043;-89
2022/06/05 03:41:08;;;;;;;17.25;10.90;;;12.30;99.90;;;;;;4959232;28;20067;-88
2022/06/05 03:43:35;;;;;;;16.88;10.73;;;11.80;99.90;;;;;;4952039;28;20050;-91
2022/06/05 03:46:03;;;;;;;21.02;11.43;;;11.80;99.90;;;;;;4969913;28;20034;-87
2022/06/05 03:48:29;;;;;;;18.27;11.18;;;;;;;;;;4980820;28;20552;-88
2022/06/05 03:50:55;;;;;;;18.92;10.70;;;11.90;99.90;;;;;;4964869;28;20353;-89
2022/06/05 03:53:24;;;;;;;20.63;10.05;;;11.90;99.90;;;;;;4966499;28;20324;-90
2022/06/05 03:55:50;;;;;;;17.92;10.30;;;12.60;99.90;;;;;;4965344;28;20089;-89
2022/06/05 03:58:25;;;;;;;16.10;9.55;;;11.90;99.90;;;;;;4978601;28;20055;-89
2022/06/05 04:00:51;;;;;;;19.35;11.10;;;11.90;99.90;;;;;;4969259;28;20046;-89
2022/06/05 04:03:17;;;;;;;18.17;10.52;;;12.00;99.90;;;;;;4951022;28;20148;-89
2022/06/05 04:05:56;;;;;;;16.77;10.27;;;12.00;99.90;;;;;;4952945;28;20050;-89
2022/06/05 04:08:22;;;;;;;16.27;10.20;;;11.80;99.90;;;;;;4948762;28;20042;-89
2022/06/05 04:10:51;;;;;;;17.80;10.50;;;12.00;99.90;;;;;;4952248;28;20136;-90
2022/06/05 04:13:17;;;;;;;14.88;10.07;;;11.50;99.90;;;;;;4966681;28;20061;-90
2022/06/05 04:15:46;;;;;;;21.75;10.70;;;12.10;99.90;;;;;;4955421;28;20057;-89
2022/06/05 04:18:14;;;;;;;17.08;10.32;;;12.10;99.90;;;;;;4961161;28;20409;-89
2022/06/05 04:20:43;;;;;;;16.20;9.98;;;12.20;99.90;;;;;;4954314;28;20046;-90
2022/06/05 04:23:10;;;;;;;16.83;10.60;;;12.20;99.90;;;;;;4999815;28;20038;-89
2022/06/05 04:25:36;;;;;;;19.77;10.05;;;12.20;99.90;;;;;;4967554;28;20042;-89
2022/06/05 04:28:02;;;;;;;16.33;10.23;;;12.30;99.90;;;;;;4986593;28;20461;-89
2022/06/05 04:30:34;;;;;;;17.77;10.27;;;12.40;99.90;;;;;;4985396;28;20096;-89
2022/06/05 04:33:08;;;;;;;17.80;10.35;;;12.50;99.90;;;;;;4982947;28;20124;-90
2022/06/05 04:35:36;;;;;;;15.55;10.20;;;14.00;99.90;;;;;;4971501;28;20104;-89
2022/06/05 04:38:07;;;;;;;19.23;10.32;;;12.50;99.90;;;;;;4964098;28;20086;-90
2022/06/05 04:40:33;;;;;;;16.70;10.48;;;12.60;99.90;;;;;;5004372;28;20061;-88
2022/06/05 04:43:01;;;;;;;18.35;10.40;;;11.90;99.90;;;;;;4978819;28;20039;-89
2022/06/05 04:45:27;;;;;;;17.80;10.50;;;12.80;99.90;;;;;;4975112;28;20396;-88
2022/06/05 04:48:01;;;;;;;17.27;10.32;;;13.00;99.90;;;;;;4971429;28;20057;-88
2022/06/05 04:50:27;;;;;;;18.27;10.45;;;13.10;99.90;;;;;;4969327;28;20046;-88
2022/06/05 04:52:53;;;;;;;19.70;11.07;;;13.20;99.90;;;;;;4985276;28;20050;-87
2022/06/05 04:55:19;;;;;;;15.23;9.43;;;13.40;99.90;;;;;;4987096;28;20069;-87
2022/06/05 04:57:47;;;;;;;15.98;9.60;;;13.30;99.90;;;;;;4965645;28;20568;-88
2022/06/05 05:00:14;;;;;;;18.25;10.68;;;13.40;99.90;;;;;;4989786;28;20077;-89
2022/06/05 05:02:45;;;;;;;16.35;9.95;;;13.00;99.90;;;;;;4984341;28;20038;-91
2022/06/05 05:05:11;;;;;;;16.38;10.45;;;13.40;99.90;;;;;;4987015;28;20116;-87
2022/06/05 05:07:44;;;;;;;16.23;9.88;;;13.40;99.90;;;;;;4968238;28;20482;-89
2022/06/05 05:10:10;;;;;;;16.02;9.52;;;13.40;99.90;;;;;;5001247;28;20466;-88
2022/06/05 05:12:36;;;;;;;15.48;10.25;;;13.50;99.90;;;;;;4989023;28;20278;-88
2022/06/05 05:15:02;;;;;;;16.48;10.07;;;13.50;99.90;;;;;;4987398;28;20344;-89
2022/06/05 05:17:28;;;;;;;14.68;9.90;;;13.50;99.90;;;;;;4979088;28;20074;-89
2022/06/05 05:19:55;;;;;;;14.98;9.85;;;13.60;99.90;;;;;;4982545;28;20042;-90
2022/06/05 05:22:21;;;;;;;14.65;9.40;;;13.60;99.90;;;;;;4996849;28;20050;-90
2022/06/05 05:24:48;;;;;;;17.13;10.00;;;;;;;;;;4958307;28;20046;-89
2022/06/05 05:27:17;;;;;;;17.10;9.80;;;13.60;99.90;;;;;;4974493;28;20065;-88
2022/06/05 05:29:43;;;;;;;15.20;9.77;;;13.70;99.90;;;;;;4988010;28;20104;-89
2022/06/05 05:32:10;;;;;;;16.25;10.30;;;13.60;99.90;;;;;;4961256;28;20050;-90
2022/06/05 05:34:37;;;;;;;16.48;10.15;;;13.80;99.90;;;;;;4984306;28;20129;-89
2022/06/05 05:37:05;;;;;;;19.40;9.75;;;13.90;99.90;;;;;;5006185;28;20147;-90
2022/06/05 05:42:20;;;;;;;16.15;8.32;;;14.10;99.90;;;;;;4987437;28;20042;-92
2022/06/05 05:44:48;;;;;;;15.15;9.48;;;14.20;99.90;;;;;;4937336;28;20060;-90
2022/06/05 05:47:23;;;;;;;14.85;9.27;;;14.20;99.90;;;;;;4974401;28;20401;-92
2022/06/05 05:49:55;;;;;;;14.63;8.85;;;14.40;99.90;;;;;;4976824;28;20144;-93
2022/06/05 05:52:22;;;;;;;13.57;8.20;;;14.50;99.90;;;;;;4974110;28;20041;-91
2022/06/05 05:54:51;;;;;;;15.65;9.88;;;14.60;99.90;;;;;;4988878;28;20045;-92
2022/06/05 05:57:22;;;;;;;16.70;9.80;;;15.10;99.90;;;;;;4983248;28;20073;-92
2022/06/05 05:59:54;;;;;;;13.80;8.88;;;14.80;99.90;;;;;;4987750;28;20038;-91
2022/06/05 06:02:22;;;;;;;15.55;9.00;;;14.80;99.90;;;;;;4992059;28;20065;-91
2022/06/05 06:04:50;;;;;;;13.57;8.73;;;14.90;99.90;;;;;;4971760;28;20492;-90
2022/06/05 06:07:17;;;;;;;15.07;8.98;;;15.00;99.90;;;;;;4983235;28;20481;-91
2022/06/05 06:09:43;;;;;;;13.40;8.90;;;15.10;99.90;;;;;;4983315;28;20034;-90
2022/06/05 06:12:10;;;;;;;14.73;8.88;;;16.20;99.90;;;;;;4960802;28;20481;-89
2022/06/05 06:14:44;;;;;;;14.35;8.55;;;15.20;99.90;;;;;;4963313;28;20525;-90
2022/06/05 06:17:16;;;;;;;14.27;8.43;;;15.20;99.90;;;;;;4952131;28;20488;-90
2022/06/05 06:19:45;;;;;;;14.23;8.60;;;15.30;99.90;;;;;;4971133;28;20449;-88
2022/06/05 06:22:14;;;;;;;18.20;8.70;;;15.30;99.90;;;;;;4953465;28;20050;-91
2022/06/05 06:24:40;;;;;;;15.32;9.20;;;14.40;99.90;;;;;;4964970;28;20051;-88
2022/06/05 06:27:06;;;;;;;14.50;9.23;;;15.30;99.90;;;;;;4980597;28;20509;-89
2022/06/05 06:29:32;;;;;;;13.50;8.82;;;15.30;99.90;;;;;;4970925;28;20462;-90
2022/06/05 06:31:57;;;;;;;15.48;9.18;;;15.40;99.90;;;;;;4984387;28;20113;-88
2022/06/05 06:34:24;;;;;;;15.70;8.98;;;15.40;99.90;;;;;;4983390;28;20125;-88
2022/06/05 06:37:01;;;;;;;12.65;8.63;;;15.50;99.90;;;;;;4967685;28;20528;-92
2022/06/05 06:39:28;;;;;;;14.13;9.13;;;15.50;99.90;;;;;;4991254;28;20057;-90
2022/06/05 06:41:55;;;;;;;15.02;9.05;;;15.60;99.90;;;;;;4977635;28;20090;-91
2022/06/05 06:44:21;;;;;;;14.25;8.70;;;15.60;99.90;;;;;;4981362;28;20123;-88
2022/06/05 06:46:50;;;;;;;14.13;9.02;;;15.70;99.90;;;;;;4967146;28;20042;-91
2022/06/05 06:49:16;;;;;;;13.63;8.80;;;16.80;99.90;;;;;;4979153;28;20035;-90
2022/06/05 06:51:46;;;;;;;14.48;8.90;;;15.90;99.90;;;;;;4962569;28;20213;-90
2022/06/05 06:54:12;;;;;;;14.05;8.93;;;;;;;;;;4966181;28;20121;-88
2022/06/05 06:56:38;;;;;;;14.70;8.70;;;16.00;99.90;;;;;;4975647;28;20062;-88
2022/06/05 06:59:07;;;;;;;15.13;9.00;;;;;;;;;;4978062;28;20493;-89
2022/06/05 07:01:38;;;;;;;15.02;9.13;;;16.40;99.90;;;;;;4966070;28;20065;-91
2022/06/05 07:04:04;;;;;;;13.80;8.45;;;16.30;99.90;;;;;;4984644;28;20049;-89
2022/06/05 07:06:30;;;;;;;13.98;8.60;;;;;;;;;;4964938;28;20054;-90
2022/06/05 07:09:02;;;;;;;14.05;8.48;;;16.50;99.90;;;;;;4974657;28;20038;-88
2022/06/05 07:11:31;;;;;;;14.93;8.82;;;16.60;99.90;;;;;;4980164;28;20100;-88
2022/06/05 07:13:59;;;;;;;13.27;8.48;;;16.60;99.90;;;;;;4952370;28;20050;-89
2022/06/05 07:16:28;;;;;;;12.45;8.02;;;16.70;99.90;;;;;;4967124;28;20321;-92
2022/06/05 07:18:57;;;;;;;13.27;8.13;;;16.70;99.90;;;;;;4984248;28;20433;-91
2022/06/05 07:21:26;;;;;;;13.18;8.48;;;16.90;99.90;;;;;;4968643;28;20054;-90
2022/06/05 07:23:56;;;;;;;12.00;8.02;;;16.90;99.90;;;;;;4984068;28;20046;-91
2022/06/05 07:26:24;;;;;;;16.27;8.65;;;15.40;99.90;;;;;;4951290;28;20503;-93
2022/06/05 07:28:53;;;;;;;12.55;7.45;;;17.10;99.90;;;;;;4974792;28;20466;-92
2022/06/05 07:31:19;;;;;;;15.27;8.63;;;17.50;99.90;;;;;;4983610;28;20054;-91
2022/06/05 07:33:58;;;;;;;16.23;8.10;;;17.40;99.90;;;;;;4976423;28;20046;-91
2022/06/05 07:36:31;;;;;;;12.32;7.85;;;17.40;99.90;;;;;;4981897;28;20494;-92
2022/06/05 07:39:06;;;;;;;13.48;8.00;;;17.50;99.90;;;;;;4983046;28;20046;-87
2022/06/05 07:41:37;;;;;;;11.93;7.28;;;17.50;99.90;;;;;;4951192;28;20045;-90
2022/06/05 07:44:04;;;;;;;12.45;7.60;;;17.50;99.90;;;;;;4970665;28;20180;-90
2022/06/05 07:46:31;;;;;;;13.32;8.07;;;17.70;99.90;;;;;;4981977;28;20035;-91
2022/06/05 07:49:04;;;;;;;12.85;7.65;;;17.70;99.90;;;;;;4968047;28;20034;-91
2022/06/05 07:54:37;;;;;;;11.73;7.40;;;18.00;99.90;;;;;;4998725;28;20062;-92
2022/06/05 07:57:12;;;;;;;12.77;7.93;;;18.20;99.90;;;;;;4976099;28;20053;-90
2022/06/05 07:59:46;;;;;;;13.30;7.75;;;18.20;99.90;;;;;;4980118;28;20038;-88
2022/06/05 08:02:27;;;;;;;10.85;6.75;;;18.50;99.90;;;;;;4959871;28;20035;-90
2022/06/05 08:04:59;;;;;;;11.20;6.50;;;18.60;99.90;;;;;;4986742;28;20050;-90
2022/06/05 08:07:29;;;;;;;11.23;6.43;;;18.80;99.90;;;;;;4969987;28;20096;-89
2022/06/05 08:09:59;;;;;;;12.63;6.90;;;18.90;99.90;;;;;;4983142;28;20478;-90
2022/06/05 08:12:34;;;;;;;10.25;6.13;;;19.00;99.90;;;;;;4966325;28;20750;-88
2022/06/05 08:15:15;;;;;;;11.52;6.40;;;19.20;99.90;;;;;;4968091;28;20419;-91
2022/06/05 08:17:44;;;;;;;11.40;6.28;;;19.10;99.90;;;;;;4971389;28;20054;-89
2022/06/05 08:20:34;;;;;;;11.20;6.30;;;19.30;99.90;;;;;;4986643;28;20054;-89
2022/06/05 08:23:05;;;;;;;12.25;6.43;;;19.60;99.90;;;;;;4984084;28;20101;-88
2022/06/05 08:25:40;;;;;;;11.07;6.50;;;18.70;99.90;;;;;;4965239;28;20437;-90
2022/06/05 08:28:25;;;;;;;12.32;6.70;;;19.60;99.90;;;;;;4970839;28;20508;-89
2022/06/05 08:30:53;;;;;;;12.18;6.35;;;18.40;99.90;;;;;;4984836;28;20042;-90
2022/06/05 08:33:22;;;;;;;12.50;6.35;;;19.90;99.90;;;;;;4973712;28;20559;-89
2022/06/05 08:35:51;;;;;;;12.38;6.55;;;19.80;99.90;;;;;;4989658;28;20068;-91
2022/06/05 08:41:31;;;;;;;11.05;6.72;;;20.50;99.90;;;;;;4990560;28;20397;-90
2022/06/05 08:44:14;;;;;;;10.82;6.43;;;20.10;99.90;;;;;;4989059;28;20073;-86
2022/06/05 08:46:54;;;;;;;11.80;7.07;;;20.10;99.90;;;;;;4972765;28;20043;-92
2022/06/05 08:49:47;;;;;;;11.52;6.70;;;18.00;99.90;;;;;;4987981;28;20217;-90
2022/06/05 08:52:36;;;;;;;11.23;6.35;;;20.20;99.90;;;;;;4971445;28;20046;-89
2022/06/05 08:55:24;;;;;;;11.68;6.22;;;20.30;99.90;;;;;;4985499;28;20038;-89
2022/06/05 08:57:56;;;;;;;10.48;6.22;;;19.90;99.90;;;;;;4984548;28;20050;-90
2022/06/05 09:00:42;;;;;;;11.02;6.55;;;20.40;99.90;;;;;;4982955;28;20522;-89
2022/06/05 09:03:39;;;;;;;9.63;5.28;;;20.50;99.90;;;;;;4982438;28;20092;-88
2022/06/05 09:06:28;;;;;;;11.40;6.00;;;20.50;99.90;;;;;;4968987;28;20037;-87
2022/06/05 09:09:20;;;;;;;11.88;5.80;;;20.60;99.90;;;;;;4987162;28;20485;-85
2022/06/05 09:12:08;;;;;;;10.68;5.90;;;20.70;99.90;;;;;;4983195;28;20520;-83
2022/06/05 09:15:15;;;;;;;10.55;5.60;;;20.40;99.90;;;;;;4988210;28;20038;-85
2022/06/05 09:18:06;;;;;;;11.65;5.30;;;20.70;99.90;;;;;;4988437;28;20046;-82
2022/06/05 09:20:46;;;;;;;9.77;5.57;;;20.60;99.90;;;;;;4989501;28;20061;-83
2022/06/05 09:23:33;;;;;;;9.30;5.28;;;20.60;99.90;;;;;;4970679;28;20157;-83
2022/06/05 09:26:17;;;;;;;11.07;5.60;;;20.70;99.90;;;;;;4988054;28;20041;-83
2022/06/05 09:29:13;;;;;;;10.57;5.60;;;20.80;99.90;;;;;;4983612;28;20168;-90
2022/06/05 09:32:20;;;;;;;10.43;5.95;;;20.80;99.90;;;;;;4989360;28;20050;-86
2022/06/05 09:35:32;;;;;;;11.07;5.35;;;21.00;99.90;;;;;;4985138;28;20037;-86
2022/06/05 09:38:42;;;;;;;10.10;5.72;;;21.10;99.90;;;;;;4962451;28;20038;-91
2022/06/05 09:41:19;;;;;;;10.85;5.78;;;21.10;99.90;;;;;;4971722;28;20054;-88
2022/06/05 09:44:32;;;;;;;10.88;5.60;;;21.30;99.90;;;;;;4988200;28;20445;-88
2022/06/05 09:47:08;;;;;;;10.18;5.57;;;21.40;99.90;;;;;;4991075;28;20056;-88
2022/06/05 09:49:39;;;;;;;13.00;5.60;;;21.60;99.90;;;;;;4983996;28;20046;-89
2022/06/05 09:52:12;;;;;;;10.13;5.28;;;21.60;99.90;;;;;;4991700;28;20236;-87
2022/06/05 09:54:40;;;;;;;;;;;21.80;99.90;;;;;;4987210;28;20397;-84
2022/06/05 10:00:46;;;;;;;10.00;5.25;;;22.10;99.90;;;;;;4988947;28;20405;-89
2022/06/05 10:03:19;;;;;;;9.18;5.18;;;22.10;99.90;;;;;;4978800;28;20050;-89
2022/06/05 10:06:08;;;;;;;10.32;5.30;;;22.10;99.90;;;;;;4984843;28;20049;-89
2022/06/05 10:08:53;;;;;;;9.48;5.10;;;22.00;99.90;;;;;;4972903;28;20115;-88
2022/06/05 10:11:47;;;;;;;9.50;5.05;;;22.00;99.90;;;;;;4974108;28;20049;-89
2022/06/05 10:14:44;;;;;;;9.98;5.43;;;20.00;99.90;;;;;;4973773;28;20037;-87
2022/06/05 10:17:16;;;;;;;12.00;5.07;;;22.00;99.90;;;;;;4984439;28;20049;-87
2022/06/05 10:19:52;;;;;;;10.32;5.13;;;22.10;99.90;;;;;;4971723;28;20068;-88
2022/06/05 10:22:42;;;;;;;9.85;5.07;;;22.20;99.90;;;;;;4959430;28;20058;-91
2022/06/05 10:25:27;;;;;;;10.65;4.95;;;22.30;99.90;;;;;;5001278;28;20045;-89
2022/06/05 10:28:04;;;;;;;9.40;5.10;;;22.30;99.90;;;;;;4962405;28;20042;-89
2022/06/05 10:30:35;;;;;;;10.80;5.20;;;24.20;99.90;;;;;;4982048;28;20046;-86
2022/06/05 10:33:30;;;;;;;10.20;5.13;;;20.40;99.90;;;;;;4965811;28;20289;-87
2022/06/05 10:36:24;;;;;;;11.52;4.78;;;22.70;99.90;;;;;;4976088;28;20532;-87
2022/06/05 10:39:18;;;;;;;9.60;5.05;;;22.20;99.90;;;;;;4968481;28;20053;-86
2022/06/05 10:41:53;;;;;;;10.80;4.82;;;22.90;99.90;;;;;;4966720;28;20042;-89
2022/06/05 10:44:57;;;;;;;9.90;4.95;;;23.00;99.90;;;;;;4980740;28;20077;-88
2022/06/05 10:48:13;;;;;;;8.93;5.15;;;23.20;99.90;;;;;;5002661;28;20074;-92
2022/06/05 10:50:49;;;;;;;10.52;5.28;;;23.10;99.90;;;;;;4969918;28;21070;-86
2022/06/05 10:53:54;;;;;;;9.82;4.95;;;23.20;99.90;;;;;;4982193;28;20034;-88
2022/06/05 10:57:06;;;;;;;9.73;5.22;;;23.10;99.90;;;;;;4966172;28;20357;-87
2022/06/05 10:59:56;;;;;;;10.48;4.93;;;24.30;99.90;;;;;;4988544;28;20073;-89
2022/06/05 11:02:56;;;;;;;9.70;5.07;;;23.20;99.90;;;;;;4983989;28;20050;-90
2022/06/05 11:06:02;;;;;;;11.35;4.60;;;23.20;99.90;;;;;;4991857;28;20054;-95
2022/06/05 11:09:02;;;;;;;8.75;4.50;;;23.20;99.90;;;;;;4977794;28;20121;-93
2022/06/05 11:14:52;;;;;;;8.88;4.30;;;23.00;99.90;;;;;;4979385;28;20395;-80
2022/06/05 11:17:41;;;;;;;8.43;4.18;;;23.10;99.90;;;;;;4974643;28;20073;-84
2022/06/05 11:20:15;;;;;;;11.95;4.50;;;22.40;99.90;;;;;;4976004;28;20121;-84
2022/06/05 11:23:07;;;;;;;10.18;4.18;;;23.40;99.90;;;;;;4964356;28;20093;-83
2022/06/05 11:25:54;;;;;;;9.63;4.60;;;23.40;99.90;;;;;;4966755;28;20034;-83
2022/06/05 11:28:49;;;;;;;8.60;4.30;;;23.50;99.90;;;;;;4973966;28;20061;-82
2022/06/05 11:31:55;;;;;;;8.45;4.20;;;23.50;99.90;;;;;;4977096;28;20046;-82
2022/06/05 11:34:45;;;;;;;8.90;4.38;;;23.60;99.90;;;;;;4980664;28;20537;-82
2022/06/05 11:37:35;;;;;;;8.70;4.00;;;23.60;99.90;;;;;;4979827;28;20473;-83
2022/06/05 11:40:16;;;;;;;9.48;4.30;;;23.70;99.90;;;;;;4966492;28;20144;-83
2022/06/05 11:43:24;;;;;;;9.23;4.15;;;23.60;99.90;;;;;;4985580;28;20034;-84
2022/06/05 11:46:11;;;;;;;8.65;3.72;;;23.50;99.90;;;;;;4963347;28;20540;-83
2022/06/05 11:48:56;;;;;;;8.30;4.00;;;23.50;99.90;;;;;;4980920;28;21686;-81
2022/06/05 11:51:57;;;;;;;10.10;4.45;;;23.60;99.90;;;;;;4982989;28;20416;-83
2022/06/05 11:54:33;;;;;;;9.45;4.07;;;23.50;99.90;;;;;;4962661;28;20497;-84
2022/06/05 11:57:25;;;;;;;8.23;3.95;;;23.60;99.90;;;;;;4982524;28;20136;-83
2022/06/05 12:00:04;;;;;;;8.85;3.88;;;23.60;99.90;;;;;;4976936;28;20031;-83
2022/06/05 12:02:45;;;;;;;8.98;4.22;;;23.60;99.90;;;;;;4978733;28;20571;-82
2022/06/05 12:05:44;;;;;;;8.98;4.20;;;23.70;99.90;;;;;;4962435;28;20482;-83
2022/06/05 12:08:28;;;;;;;11.25;4.00;;;23.60;99.90;;;;;;4981550;28;20067;-81
2022/06/05 12:11:28;;;;;;;11.70;4.25;;;23.30;99.90;;;;;;4978092;28;20047;-83
2022/06/05 12:14:22;;;;;;;9.60;3.92;;;23.70;99.90;;;;;;4935111;28;20238;-82
2022/06/05 12:17:16;;;;;;;8.25;3.88;;;23.80;99.90;;;;;;4956878;28;20050;-83
2022/06/05 12:20:22;;;;;;;9.35;4.13;;;23.70;99.90;;;;;;4961725;28;20250;-83
2022/06/05 12:23:00;;;;;;;8.15;4.00;;;23.80;99.90;;;;;;4990016;28;20054;-83
2022/06/05 12:26:02;;;;;;;9.00;3.78;;;23.70;99.90;;;;;;4980993;28;20047;-84
2022/06/05 12:29:01;;;;;;;8.82;4.20;;;23.80;99.90;;;;;;4973048;28;20058;-82
2022/06/05 12:31:39;;;;;;;8.05;3.95;;;23.50;99.90;;;;;;4970189;28;20046;-83
2022/06/05 12:34:26;;;;;;;10.95;4.47;;;23.80;99.90;;;;;;5002013;28;20077;-82
2022/06/05 12:37:13;;;;;;;8.45;4.05;;;23.70;99.90;;;;;;5007044;28;20078;-82
2022/06/05 12:39:47;;;;;;;7.90;3.97;;;23.60;99.90;;;;;;4971627;28;20033;-83
2022/06/05 12:42:33;;;;;;;9.88;4.13;;;23.60;99.90;;;;;;4963440;28;20053;-83
2022/06/05 12:45:03;;;;;;;8.18;3.70;;;23.60;99.90;;;;;;4979763;28;20041;-84
2022/06/05 12:48:08;;;;;;;8.65;4.13;;;23.60;99.90;;;;;;4978222;28;20054;-83
2022/06/05 12:51:03;;;;;;;8.35;4.00;;;23.50;99.90;;;;;;4977555;28;20053;-84
2022/06/05 12:54:18;;;;;;;10.63;4.40;;;23.50;99.90;;;;;;4983909;28;20420;-83
2022/06/05 12:56:50;;;;;;;9.32;3.83;;;23.60;99.90;;;;;;4968333;28;20192;-83
2022/06/05 12:59:33;;;;;;;7.90;3.90;;;23.60;99.90;;;;;;4978548;28;20448;-82
2022/06/05 13:02:32;;;;;;;8.25;4.20;;;23.60;99.90;;;;;;4990826;28;20423;-84
2022/06/05 13:05:08;;;;;;;8.93;4.13;;;23.50;99.90;;;;;;4989524;28;20045;-83
2022/06/05 13:08:05;;;;;;;9.02;4.10;;;23.50;99.90;;;;;;4978386;28;20057;-84
2022/06/05 13:11:02;;;;;;;8.55;4.22;;;23.50;99.90;;;;;;4985313;28;20046;-82
2022/06/05 13:13:47;;;;;;;;;;;;;;;;;;;;;
2022/06/05 13:16:30;;;;;;;8.77;3.90;;;23.40;99.90;;;;;;4985351;28;20180;-83
2022/06/05 13:19:23;;;;;;;7.65;3.63;;;23.50;99.90;;;;;;4968166;28;20058;-83
2022/06/05 13:22:08;;;;;;;7.88;3.92;;;23.50;99.90;;;;;;4979512;28;20089;-83
2022/06/05 13:24:46;;;;;;;8.50;4.05;;;23.30;99.90;;;;;;4971872;28;20046;-83
2022/06/05 13:27:40;;;;;;;8.68;3.83;;;23.50;99.90;;;;;;4990851;28;20444;-83
2022/06/05 13:30:20;;;;;;;7.93;3.75;;;23.60;99.90;;;;;;4969531;28;20046;-83
2022/06/05 13:32:53;;;;;;;8.30;4.10;;;23.50;99.90;;;;;;4970483;28;20313;-84
2022/06/05 13:35:41;;;;;;;8.15;4.00;;;23.60;99.90;;;;;;4984898;28;20046;-83
2022/06/05 13:38:25;;;;;;;10.55;4.30;;;23.60;99.90;;;;;;5005072;28;20053;-82
2022/06/05 13:41:03;;;;;;;7.80;3.75;;;23.60;99.90;;;;;;4971565;28;20441;-82
2022/06/05 13:43:36;;;;;;;9.82;4.22;;;23.60;99.90;;;;;;4989282;28;20464;-83
2022/06/05 13:46:05;;;;;;;;;;;23.80;99.90;;;;;;4986156;28;20498;-83
2022/06/05 13:48:37;;;;;;;8.30;3.78;;;23.80;99.90;;;;;;4986104;28;19964;-83
2022/06/05 13:51:20;;;;;;;11.55;3.97;;;23.80;99.90;;;;;;4979129;28;20481;-82
2022/06/05 13:54:01;;;;;;;7.75;3.75;;;23.90;99.90;;;;;;4990991;28;20046;-83